Time;durP1;ratioP1;P1;durP2;ratioP2;P2;SDS_P1;SDS_P2;PMS_P1;PMS_P2;Temp;Humidity;BMP_temperature;BMP_pressure;BME280_temperature;BME280_humidity;BME280_pressure;Samples;Min_cycle;Max_cycle;Signal;HPM_P1;HPM_P2
2024/01/20 00:01:56;;;;;;;0.40;0.40;;;0.50;99.90;;;;;;4414610;32;20136;-77
2024/01/20 00:04:22;;;;;;;0.43;0.43;;;0.50;99.90;;;;;;4413770;32;20081;-77
2024/01/20 00:06:47;;;;;;;0.60;0.60;;;0.50;99.90;;;;;;4411993;32;20066;-72
2024/01/20 00:09:13;;;;;;;1.48;1.02;;;0.60;99.90;;;;;;4409899;32;20066;-73
2024/01/20 00:11:38;;;;;;;0.40;0.40;;;0.60;99.90;;;;;;4410215;32;20072;-73
2024/01/20 00:14:04;;;;;;;0.50;0.50;;;0.50;99.90;;;;;;4414406;32;20093;-73
2024/01/20 00:16:30;;;;;;;0.30;0.30;;;0.50;99.90;;;;;;4412510;32;20073;-73
2024/01/20 00:18:55;;;;;;;0.88;0.88;;;0.50;99.90;;;;;;4414696;32;20542;-72
2024/01/20 00:21:21;;;;;;;0.40;0.40;;;0.50;99.90;;;;;;4413340;32;20090;-71
2024/01/20 00:23:46;;;;;;;0.40;0.40;;;0.60;99.90;;;;;;4411690;32;20184;-73
2024/01/20 00:26:12;;;;;;;2.17;1.25;;;0.60;99.90;;;;;;4407189;32;20327;-71
2024/01/20 00:28:37;;;;;;;0.60;0.60;;;0.60;99.90;;;;;;4408138;32;20474;-73
2024/01/20 00:31:03;;;;;;;4.28;1.20;;;0.60;99.90;;;;;;4412990;32;20089;-74
2024/01/20 00:33:29;;;;;;;0.93;0.93;;;0.50;99.90;;;;;;4409448;32;20077;-77
2024/01/20 00:35:55;;;;;;;1.45;0.77;;;0.50;99.90;;;;;;4413294;32;20575;-77
2024/01/20 00:38:20;;;;;;;0.40;0.40;;;0.60;99.90;;;;;;4411305;32;20148;-77
2024/01/20 00:40:47;;;;;;;0.50;0.50;;;0.60;99.90;;;;;;4413271;32;20157;-78
2024/01/20 00:43:12;;;;;;;0.40;0.40;;;0.60;99.90;;;;;;4416863;32;20509;-77
2024/01/20 00:45:38;;;;;;;0.40;0.40;;;0.60;99.90;;;;;;4415454;32;20073;-77
2024/01/20 00:48:03;;;;;;;0.50;0.50;;;0.60;99.90;;;;;;4414799;32;20074;-77
2024/01/20 00:50:29;;;;;;;0.50;0.50;;;0.60;99.90;;;;;;4414829;32;20065;-77
2024/01/20 00:52:55;;;;;;;0.50;0.50;;;0.60;99.90;;;;;;4414904;32;20093;-76
2024/01/20 00:55:21;;;;;;;0.50;0.50;;;0.60;99.90;;;;;;4418007;32;20541;-77
2024/01/20 00:57:46;;;;;;;0.47;0.47;;;0.60;99.90;;;;;;4413090;32;20070;-77
2024/01/20 01:00:13;;;;;;;0.50;0.50;;;0.60;99.90;;;;;;4414851;32;20556;-75
2024/01/20 01:02:39;;;;;;;0.40;0.40;;;0.60;99.90;;;;;;4413426;32;20073;-77
2024/01/20 01:05:07;;;;;;;0.55;0.55;;;0.60;99.90;;;;;;4414518;32;20082;-77
2024/01/20 01:07:33;;;;;;;0.43;0.43;;;0.60;99.90;;;;;;4415283;32;20513;-75
2024/01/20 01:09:59;;;;;;;0.40;0.40;;;0.60;99.90;;;;;;4410675;32;20065;-75
2024/01/20 01:12:25;;;;;;;0.85;0.85;;;0.50;99.90;;;;;;4413747;32;20746;-77
2024/01/20 01:14:50;;;;;;;0.93;0.85;;;0.50;99.90;;;;;;4412430;32;20065;-75
2024/01/20 01:17:17;;;;;;;0.50;0.50;;;0.60;99.90;;;;;;4412036;32;20408;-76
2024/01/20 01:19:45;;;;;;;0.50;0.50;;;0.60;99.90;;;;;;4408939;32;20081;-74
2024/01/20 01:22:10;;;;;;;0.40;0.40;;;0.50;99.90;;;;;;4410954;32;20605;-75
2024/01/20 01:24:37;;;;;;;0.50;0.50;;;0.50;99.90;;;;;;4412134;32;20066;-75
2024/01/20 01:27:03;;;;;;;0.73;0.73;;;0.50;99.90;;;;;;4412255;32;20078;-75
2024/01/20 01:29:31;;;;;;;0.40;0.40;;;0.50;99.90;;;;;;4409971;32;20073;-75
2024/01/20 01:31:57;;;;;;;0.40;0.40;;;0.50;99.90;;;;;;4412696;32;20540;-75
2024/01/20 01:34:22;;;;;;;0.43;0.43;;;0.50;99.90;;;;;;4411865;32;20077;-75
2024/01/20 01:36:56;;;;;;;0.65;0.65;;;0.50;99.90;;;;;;4411359;32;20085;-76
2024/01/20 01:39:22;;;;;;;0.82;0.82;;;0.50;99.90;;;;;;4414082;32;20078;-75
2024/01/20 01:41:47;;;;;;;5.05;0.88;;;0.50;99.90;;;;;;4410399;32;20589;-75
2024/01/20 01:44:13;;;;;;;6.60;2.95;;;0.50;99.90;;;;;;4412455;32;20290;-75
2024/01/20 01:46:39;;;;;;;1.55;1.45;;;0.50;99.90;;;;;;4411380;32;20101;-76
2024/01/20 01:49:06;;;;;;;0.43;0.43;;;0.50;99.90;;;;;;4411188;32;20093;-75
2024/01/20 01:51:32;;;;;;;1.08;0.90;;;0.40;99.90;;;;;;4413649;32;20070;-75
2024/01/20 01:54:01;;;;;;;0.40;0.40;;;0.50;99.90;;;;;;4413937;32;20767;-75
2024/01/20 01:56:27;;;;;;;0.98;0.80;;;0.50;99.90;;;;;;4411702;32;20062;-75
2024/01/20 01:58:54;;;;;;;0.40;0.40;;;0.50;99.90;;;;;;4410421;32;20089;-75
2024/01/20 02:01:20;;;;;;;0.45;0.45;;;0.50;99.90;;;;;;4411372;32;20073;-74
2024/01/20 02:03:45;;;;;;;0.80;0.80;;;0.50;99.90;;;;;;4412837;32;20495;-75
2024/01/20 02:06:11;;;;;;;1.48;1.25;;;0.50;99.90;;;;;;4411782;32;20128;-76
2024/01/20 02:08:39;;;;;;;1.02;1.00;;;0.50;99.90;;;;;;4412214;32;20073;-75
2024/01/20 02:11:04;;;;;;;0.40;0.40;;;0.50;99.90;;;;;;4411246;32;20069;-75
2024/01/20 02:13:31;;;;;;;0.60;0.60;;;0.50;99.90;;;;;;4413952;32;20129;-75
2024/01/20 02:15:57;;;;;;;0.50;0.50;;;0.50;99.90;;;;;;4410129;32;20541;-75
2024/01/20 02:18:23;;;;;;;0.50;0.50;;;0.60;99.90;;;;;;4410463;32;21215;-75
2024/01/20 02:20:48;;;;;;;1.30;1.15;;;0.60;99.90;;;;;;4407560;32;20070;-75
2024/01/20 02:23:14;;;;;;;0.40;0.40;;;0.50;99.90;;;;;;4411739;32;20120;-75
2024/01/20 02:25:39;;;;;;;0.50;0.50;;;0.60;99.90;;;;;;4413933;32;20094;-75
2024/01/20 02:28:06;;;;;;;0.47;0.47;;;0.60;99.90;;;;;;4412963;32;20068;-75
2024/01/20 02:30:31;;;;;;;0.40;0.40;;;0.60;99.90;;;;;;4409609;32;20604;-75
2024/01/20 02:32:57;;;;;;;0.50;0.50;;;0.60;99.90;;;;;;4411267;32;20130;-74
2024/01/20 02:35:22;;;;;;;0.73;0.73;;;0.70;99.90;;;;;;4410122;32;20090;-74
2024/01/20 02:37:48;;;;;;;0.40;0.40;;;0.70;99.90;;;;;;4408428;32;20082;-75
2024/01/20 02:40:14;;;;;;;0.40;0.40;;;0.60;99.90;;;;;;4411893;32;20114;-74
2024/01/20 02:42:39;;;;;;;0.40;0.40;;;0.60;99.90;;;;;;4412835;32;20501;-74
2024/01/20 02:45:05;;;;;;;0.40;0.40;;;0.70;99.90;;;;;;4413731;32;20201;-74
2024/01/20 02:47:31;;;;;;;0.98;0.90;;;0.70;99.90;;;;;;4417106;32;20406;-76
2024/01/20 02:49:56;;;;;;;0.40;0.40;;;0.70;99.90;;;;;;4413333;32;20070;-73
2024/01/20 02:52:22;;;;;;;0.40;0.40;;;0.70;99.90;;;;;;4413536;32;20074;-76
2024/01/20 02:54:47;;;;;;;0.40;0.40;;;0.70;99.90;;;;;;4415858;32;20094;-78
2024/01/20 02:57:13;;;;;;;1.33;0.98;;;0.70;99.90;;;;;;4410967;32;20519;-76
2024/01/20 02:59:38;;;;;;;0.50;0.50;;;0.70;99.90;;;;;;4412909;32;20164;-76
2024/01/20 03:02:04;;;;;;;0.40;0.40;;;0.70;99.90;;;;;;4413563;32;20082;-76
2024/01/20 03:04:29;;;;;;;0.40;0.40;;;0.70;99.90;;;;;;4413743;32;20187;-76
2024/01/20 03:06:55;;;;;;;0.40;0.40;;;0.80;99.90;;;;;;4413386;32;20057;-74
2024/01/20 03:09:20;;;;;;;0.57;0.57;;;0.80;99.90;;;;;;4412497;32;20090;-76
2024/01/20 03:11:46;;;;;;;0.30;0.30;;;0.80;99.90;;;;;;4415004;32;20069;-76
2024/01/20 03:14:11;;;;;;;0.30;0.30;;;0.80;99.90;;;;;;4415887;32;20069;-76
2024/01/20 03:16:38;;;;;;;0.37;0.37;;;0.70;99.90;;;;;;4417085;32;20093;-77
2024/01/20 03:19:04;;;;;;;0.70;0.70;;;0.80;99.90;;;;;;4418337;32;20608;-77
2024/01/20 03:21:29;;;;;;;1.10;0.70;;;0.80;99.90;;;;;;4416000;32;20431;-77
2024/01/20 03:23:55;;;;;;;0.50;0.50;;;0.80;99.90;;;;;;4417575;32;20146;-76
2024/01/20 03:26:22;;;;;;;0.75;0.75;;;0.80;99.90;;;;;;4415473;32;20431;-77
2024/01/20 03:28:53;;;;;;;0.40;0.40;;;0.90;99.90;;;;;;4417583;32;20517;-80
2024/01/20 03:31:19;;;;;;;0.47;0.47;;;0.90;99.90;;;;;;4416061;32;20061;-76
2024/01/20 03:33:44;;;;;;;0.40;0.40;;;0.80;99.90;;;;;;4413603;32;20485;-75
2024/01/20 03:36:11;;;;;;;0.60;0.60;;;0.80;99.90;;;;;;4412102;32;20057;-75
2024/01/20 03:38:36;;;;;;;1.75;1.23;;;0.80;99.90;;;;;;4411333;32;20102;-75
2024/01/20 03:41:02;;;;;;;0.55;0.55;;;0.80;99.90;;;;;;4411265;32;20082;-75
2024/01/20 03:43:27;;;;;;;0.60;0.60;;;0.80;99.90;;;;;;4414063;32;20083;-75
2024/01/20 03:45:54;;;;;;;0.43;0.43;;;0.80;99.90;;;;;;4412775;32;20074;-76
2024/01/20 03:48:19;;;;;;;0.40;0.40;;;0.80;99.90;;;;;;4413214;32;20069;-75
2024/01/20 03:50:45;;;;;;;0.45;0.45;;;0.90;99.90;;;;;;4414130;32;20085;-76
2024/01/20 03:53:11;;;;;;;0.40;0.40;;;0.90;99.90;;;;;;4412900;32;20093;-76
2024/01/20 03:55:36;;;;;;;3.25;0.88;;;0.90;99.90;;;;;;4413732;32;20085;-76
2024/01/20 03:58:02;;;;;;;0.40;0.40;;;0.90;99.90;;;;;;4412481;32;20065;-77
2024/01/20 04:00:27;;;;;;;0.88;0.85;;;0.90;99.90;;;;;;4416983;32;20094;-77
2024/01/20 04:02:53;;;;;;;1.35;0.82;;;0.90;99.90;;;;;;4413660;32;20102;-79
2024/01/20 04:05:18;;;;;;;0.40;0.40;;;0.90;99.90;;;;;;4410964;32;20094;-71
2024/01/20 04:07:44;;;;;;;0.52;0.52;;;0.90;99.90;;;;;;4414668;32;20085;-71
2024/01/20 04:10:09;;;;;;;1.55;0.70;;;0.90;99.90;;;;;;4408153;32;20358;-74
2024/01/20 04:12:37;;;;;;;0.40;0.40;;;0.90;99.90;;;;;;4412082;32;20200;-72
2024/01/20 04:15:03;;;;;;;0.50;0.50;;;1.00;99.90;;;;;;4411768;32;20066;-71
2024/01/20 04:17:28;;;;;;;0.57;0.57;;;1.00;99.90;;;;;;4411143;32;20504;-71
2024/01/20 04:19:54;;;;;;;1.27;1.17;;;0.90;99.90;;;;;;4415077;32;20058;-72
2024/01/20 04:22:19;;;;;;;0.40;0.40;;;0.90;99.90;;;;;;4410299;32;20065;-73
2024/01/20 04:24:45;;;;;;;0.40;0.40;;;1.00;99.90;;;;;;4411501;32;20065;-76
2024/01/20 04:27:10;;;;;;;0.50;0.50;;;0.90;99.90;;;;;;4413262;32;20096;-76
2024/01/20 04:29:36;;;;;;;0.50;0.50;;;0.90;99.90;;;;;;4411291;32;20748;-76
2024/01/20 04:32:01;;;;;;;1.95;1.58;;;0.90;99.90;;;;;;4414645;32;20522;-76
2024/01/20 04:34:27;;;;;;;0.40;0.40;;;0.80;99.90;;;;;;4413039;32;20073;-76
2024/01/20 04:36:52;;;;;;;0.65;0.65;;;0.80;99.90;;;;;;4412105;32;20106;-76
2024/01/20 04:39:17;;;;;;;0.65;0.65;;;0.80;99.90;;;;;;4409036;32;20074;-76
2024/01/20 04:41:43;;;;;;;0.50;0.50;;;0.80;99.90;;;;;;4415420;32;20514;-77
2024/01/20 04:44:08;;;;;;;0.68;0.68;;;0.80;99.90;;;;;;4413136;32;20077;-76
2024/01/20 04:46:34;;;;;;;11.10;1.60;;;0.80;99.90;;;;;;4411443;32;20556;-77
2024/01/20 04:48:59;;;;;;;0.40;0.40;;;0.80;99.90;;;;;;4411741;32;20600;-75
2024/01/20 04:51:25;;;;;;;2.35;0.95;;;0.80;99.90;;;;;;4412721;32;20074;-75
2024/01/20 04:53:51;;;;;;;0.60;0.60;;;0.80;99.90;;;;;;4411375;32;20069;-76
2024/01/20 04:56:19;;;;;;;1.12;1.02;;;0.80;99.90;;;;;;4410721;32;20077;-76
2024/01/20 04:58:45;;;;;;;0.50;0.50;;;0.80;99.90;;;;;;4412115;32;20058;-76
2024/01/20 05:01:11;;;;;;;0.50;0.50;;;0.80;99.90;;;;;;4410770;32;20403;-76
2024/01/20 05:03:37;;;;;;;0.40;0.40;;;0.80;99.90;;;;;;4413443;32;20061;-76
2024/01/20 05:06:02;;;;;;;0.68;0.68;;;0.80;99.90;;;;;;4411814;32;20061;-77
2024/01/20 05:08:28;;;;;;;0.77;0.77;;;0.80;99.90;;;;;;4414316;32;20566;-77
2024/01/20 05:10:53;;;;;;;0.60;0.60;;;0.80;99.90;;;;;;4410191;32;20065;-77
2024/01/20 05:13:19;;;;;;;1.75;1.37;;;0.70;99.90;;;;;;4413193;32;20069;-75
2024/01/20 05:15:44;;;;;;;0.60;0.60;;;0.70;99.90;;;;;;4413414;32;20154;-75
2024/01/20 05:18:10;;;;;;;0.47;0.47;;;0.80;99.90;;;;;;4410418;32;20074;-75
2024/01/20 05:20:35;;;;;;;0.43;0.43;;;0.70;99.90;;;;;;4412477;32;20081;-75
2024/01/20 05:23:01;;;;;;;1.08;0.98;;;0.70;99.90;;;;;;4410995;32;20074;-77
2024/01/20 05:25:26;;;;;;;0.40;0.40;;;0.80;99.90;;;;;;4412981;32;20137;-76
2024/01/20 05:27:51;;;;;;;0.40;0.40;;;0.80;99.90;;;;;;4413538;32;20517;-76
2024/01/20 05:30:17;;;;;;;0.50;0.50;;;0.90;99.90;;;;;;4413146;32;20061;-76
2024/01/20 05:32:42;;;;;;;1.00;0.98;;;1.00;99.90;;;;;;4410657;32;20452;-76
2024/01/20 05:35:08;;;;;;;0.45;0.45;;;1.10;99.90;;;;;;4409591;32;20085;-75
2024/01/20 05:37:33;;;;;;;0.43;0.43;;;1.10;99.90;;;;;;4407630;32;20121;-76
2024/01/20 05:39:59;;;;;;;0.40;0.40;;;1.10;99.90;;;;;;4406852;32;20070;-76
2024/01/20 05:42:24;;;;;;;0.40;0.40;;;1.10;99.90;;;;;;4411586;32;20061;-75
2024/01/20 05:44:50;;;;;;;0.62;0.62;;;1.20;99.90;;;;;;4412302;32;20112;-75
2024/01/20 05:47:16;;;;;;;0.40;0.40;;;1.20;99.90;;;;;;4414477;32;20065;-76
2024/01/20 05:49:41;;;;;;;0.50;0.50;;;1.20;99.90;;;;;;4412304;32;20483;-76
2024/01/20 05:52:07;;;;;;;0.62;0.62;;;1.20;99.90;;;;;;4410143;32;20124;-76
2024/01/20 05:54:32;;;;;;;0.95;0.95;;;1.20;99.90;;;;;;4410241;32;20073;-76
2024/01/20 05:56:58;;;;;;;0.35;0.35;;;1.20;99.90;;;;;;4411525;32;20078;-76
2024/01/20 05:59:23;;;;;;;0.40;0.40;;;1.10;99.90;;;;;;4413062;32;20065;-76
2024/01/20 06:01:50;;;;;;;0.57;0.57;;;1.10;99.90;;;;;;4415403;32;20424;-75
2024/01/20 06:04:17;;;;;;;0.40;0.40;;;1.20;99.90;;;;;;4418866;32;20077;-76
2024/01/20 06:06:43;;;;;;;0.88;0.88;;;1.20;99.90;;;;;;4409908;32;20431;-76
2024/01/20 06:09:09;;;;;;;0.50;0.50;;;1.10;99.90;;;;;;4408698;32;20065;-75
2024/01/20 06:11:34;;;;;;;0.52;0.52;;;1.10;99.90;;;;;;4418115;32;20470;-76
2024/01/20 06:14:00;;;;;;;0.52;0.52;;;1.00;99.90;;;;;;4413642;32;20090;-76
2024/01/20 06:16:25;;;;;;;0.47;0.47;;;1.00;99.90;;;;;;4415725;32;20081;-76
2024/01/20 06:18:51;;;;;;;0.40;0.40;;;1.00;99.90;;;;;;4418067;32;20090;-76
2024/01/20 06:21:21;;;;;;;0.40;0.40;;;1.00;99.90;;;;;;4408711;32;20148;-76
2024/01/20 06:23:48;;;;;;;5.53;2.75;;;0.90;99.90;;;;;;4398059;32;20077;-76
2024/01/20 06:26:13;;;;;;;0.40;0.40;;;0.90;99.90;;;;;;4414810;32;20482;-76
2024/01/20 06:28:39;;;;;;;0.60;0.60;;;0.90;99.90;;;;;;4408867;32;21055;-76
2024/01/20 06:31:04;;;;;;;0.40;0.40;;;0.80;99.90;;;;;;4414150;32;20098;-76
2024/01/20 06:33:30;;;;;;;0.40;0.40;;;0.90;99.90;;;;;;4411239;32;20098;-77
2024/01/20 06:35:55;;;;;;;6.22;2.15;;;0.90;99.90;;;;;;4417927;32;20501;-77
2024/01/20 06:38:21;;;;;;;0.88;0.82;;;0.80;99.90;;;;;;4415321;32;20074;-77
2024/01/20 06:40:46;;;;;;;1.55;1.42;;;0.80;99.90;;;;;;4418136;32;20074;-77
2024/01/20 06:43:12;;;;;;;0.77;0.77;;;0.90;99.90;;;;;;4414616;32;20081;-77
2024/01/20 06:45:37;;;;;;;0.40;0.40;;;0.80;99.90;;;;;;4419865;32;20476;-77
2024/01/20 06:48:04;;;;;;;1.60;1.37;;;0.90;99.90;;;;;;4416929;32;20141;-77
2024/01/20 06:50:30;;;;;;;0.40;0.40;;;0.80;99.90;;;;;;4410652;32;20077;-76
2024/01/20 06:52:55;;;;;;;0.50;0.50;;;0.90;99.90;;;;;;4415681;32;20125;-75
2024/01/20 06:55:21;;;;;;;0.30;0.30;;;0.90;99.90;;;;;;4410672;32;20061;-75
2024/01/20 06:57:46;;;;;;;0.65;0.65;;;0.90;99.90;;;;;;4411370;32;20142;-75
2024/01/20 07:00:13;;;;;;;0.45;0.45;;;1.00;99.90;;;;;;4412407;32;20082;-76
2024/01/20 07:02:39;;;;;;;0.65;0.65;;;1.00;99.90;;;;;;4413631;32;20084;-74
2024/01/20 07:05:05;;;;;;;0.40;0.40;;;1.00;99.90;;;;;;4414865;32;20065;-74
2024/01/20 07:07:30;;;;;;;0.55;0.55;;;1.00;99.90;;;;;;4411352;32;20128;-75
2024/01/20 07:09:56;;;;;;;0.65;0.65;;;1.00;99.90;;;;;;4404163;32;20736;-75
2024/01/20 07:12:22;;;;;;;2.10;1.25;;;1.00;99.90;;;;;;4404527;32;20073;-76
2024/01/20 07:14:48;;;;;;;0.50;0.50;;;1.10;99.90;;;;;;4406098;32;20442;-75
2024/01/20 07:17:13;;;;;;;0.55;0.55;;;1.10;99.90;;;;;;4404526;32;20144;-76
2024/01/20 07:19:39;;;;;;;0.32;0.32;;;1.10;99.90;;;;;;4403481;32;20113;-75
2024/01/20 07:22:04;;;;;;;4.45;1.60;;;1.20;99.90;;;;;;4402443;32;20073;-75
2024/01/20 07:24:30;;;;;;;3.92;1.30;;;1.20;99.90;;;;;;4403678;32;20116;-76
2024/01/20 07:26:55;;;;;;;1.92;0.77;;;1.30;99.90;;;;;;4406333;32;20094;-76
2024/01/20 07:29:21;;;;;;;0.40;0.40;;;1.30;99.90;;;;;;4402728;32;20077;-75
2024/01/20 07:31:46;;;;;;;0.95;0.80;;;1.30;99.90;;;;;;4401826;32;20082;-75
2024/01/20 07:34:12;;;;;;;0.55;0.55;;;1.30;99.90;;;;;;4405512;32;20061;-75
2024/01/20 07:36:37;;;;;;;0.65;0.65;;;1.30;99.90;;;;;;4403585;32;20188;-75
2024/01/20 07:39:04;;;;;;;0.50;0.50;;;1.30;99.90;;;;;;4402655;32;20086;-76
2024/01/20 07:41:30;;;;;;;0.55;0.55;;;1.30;99.90;;;;;;4403201;32;20082;-75
2024/01/20 07:43:55;;;;;;;0.62;0.62;;;1.30;99.90;;;;;;4406556;32;20061;-78
2024/01/20 07:46:21;;;;;;;0.50;0.50;;;1.30;99.90;;;;;;4410340;32;20085;-77
2024/01/20 07:48:46;;;;;;;0.50;0.50;;;1.20;99.90;;;;;;4408544;32;20090;-77
2024/01/20 07:51:13;;;;;;;0.50;0.50;;;1.30;99.90;;;;;;4404209;32;20094;-77
2024/01/20 07:53:38;;;;;;;1.20;0.93;;;1.20;99.90;;;;;;4408545;32;20589;-77
2024/01/20 07:56:04;;;;;;;0.40;0.40;;;1.20;99.90;;;;;;4409534;32;20081;-78
2024/01/20 07:58:30;;;;;;;0.43;0.43;;;1.20;99.90;;;;;;4403394;32;20458;-77
2024/01/20 08:00:55;;;;;;;1.15;1.08;;;1.20;99.90;;;;;;4405889;32;20077;-77
2024/01/20 08:03:21;;;;;;;0.40;0.40;;;1.30;99.90;;;;;;4404591;32;20440;-75
2024/01/20 08:05:46;;;;;;;0.70;0.70;;;1.30;99.90;;;;;;4402342;32;20578;-75
2024/01/20 08:08:12;;;;;;;1.25;1.15;;;1.30;99.90;;;;;;4399424;32;20098;-75
2024/01/20 08:10:37;;;;;;;0.73;0.73;;;1.20;99.90;;;;;;4397217;32;20057;-75
2024/01/20 08:13:03;;;;;;;3.30;1.58;;;1.20;99.90;;;;;;4399718;32;20106;-75
2024/01/20 08:15:28;;;;;;;1.40;0.90;;;1.30;99.90;;;;;;4400339;32;20533;-76
2024/01/20 08:17:54;;;;;;;0.80;0.80;;;1.40;99.90;;;;;;4399601;32;20098;-75
2024/01/20 08:20:19;;;;;;;0.50;0.50;;;1.40;99.90;;;;;;4399694;32;20090;-74
2024/01/20 08:22:45;;;;;;;0.98;0.98;;;1.50;99.90;;;;;;4403051;32;20073;-75
2024/01/20 08:25:13;;;;;;;0.43;0.43;;;1.50;99.90;;;;;;4410220;32;20085;-75
2024/01/20 08:27:38;;;;;;;0.80;0.80;;;1.50;99.90;;;;;;4404713;32;20061;-75
2024/01/20 08:30:04;;;;;;;0.68;0.68;;;1.60;99.90;;;;;;4409450;32;20078;-76
2024/01/20 08:32:30;;;;;;;0.40;0.40;;;1.70;99.90;;;;;;4407318;32;20528;-75
2024/01/20 08:34:55;;;;;;;1.08;0.98;;;1.70;99.90;;;;;;4406334;32;20078;-75
2024/01/20 08:37:21;;;;;;;0.88;0.88;;;1.80;99.90;;;;;;4403002;32;20585;-75
2024/01/20 08:39:47;;;;;;;0.50;0.50;;;1.80;99.90;;;;;;4403730;32;20502;-75
2024/01/20 08:42:12;;;;;;;0.70;0.70;;;1.80;99.90;;;;;;4412125;32;20061;-74
2024/01/20 08:44:38;;;;;;;8.40;1.45;;;1.80;99.90;;;;;;4407240;32;20079;-74
2024/01/20 08:47:04;;;;;;;0.60;0.60;;;1.80;99.90;;;;;;4362160;32;21269;-74
2024/01/20 08:49:34;;;;;;;0.40;0.40;;;1.80;99.90;;;;;;4390913;32;20109;-75
2024/01/20 08:52:00;;;;;;;0.45;0.45;;;1.90;99.90;;;;;;4406822;32;20072;-76
2024/01/20 08:54:27;;;;;;;2.25;1.30;;;1.90;99.90;;;;;;4398137;32;20388;-76
2024/01/20 08:56:53;;;;;;;0.40;0.40;;;2.00;99.90;;;;;;4406347;32;20085;-75
2024/01/20 08:59:19;;;;;;;0.90;0.90;;;2.00;99.90;;;;;;4402943;32;20085;-75
2024/01/20 09:04:12;;;;;;;0.68;0.68;;;2.00;99.90;;;;;;4409355;32;20076;-77
2024/01/20 09:06:39;;;;;;;0.73;0.65;;;2.10;99.90;;;;;;4410183;32;20659;-75
2024/01/20 09:09:05;;;;;;;0.40;0.40;;;2.20;99.90;;;;;;4400467;32;20074;-75
2024/01/20 09:11:31;;;;;;;0.50;0.50;;;2.10;99.90;;;;;;4404981;32;20101;-77
2024/01/20 09:13:57;;;;;;;3.85;1.45;;;2.10;99.90;;;;;;4400517;32;20073;-76
2024/01/20 09:16:24;;;;;;;0.32;0.32;;;2.10;99.90;;;;;;4406286;32;20085;-76
2024/01/20 09:18:50;;;;;;;0.50;0.50;;;2.20;99.90;;;;;;4398310;32;20399;-76
2024/01/20 09:21:16;;;;;;;0.30;0.30;;;2.20;99.90;;;;;;4400185;32;20161;-75
2024/01/20 09:23:41;;;;;;;0.57;0.57;;;2.20;99.90;;;;;;4399756;32;20069;-76
2024/01/20 09:26:08;;;;;;;0.95;0.75;;;2.20;99.90;;;;;;4404329;32;20120;-74
2024/01/20 09:28:34;;;;;;;0.50;0.50;;;2.20;99.90;;;;;;4398537;32;20086;-77
2024/01/20 09:30:59;;;;;;;0.45;0.45;;;2.20;99.90;;;;;;4399512;32;20089;-80
2024/01/20 09:33:26;;;;;;;1.08;0.80;;;2.20;99.90;;;;;;4407772;32;20356;-77
2024/01/20 09:35:52;;;;;;;0.40;0.40;;;2.20;99.90;;;;;;4409892;32;20069;-77
2024/01/20 09:38:18;;;;;;;4.95;2.10;;;2.20;99.90;;;;;;4399275;32;20087;-81
2024/01/20 09:40:45;;;;;;;0.40;0.40;;;2.30;99.90;;;;;;4400233;32;20085;-75
2024/01/20 09:43:11;;;;;;;1.23;0.70;;;2.20;99.90;;;;;;4401612;32;20105;-75
2024/01/20 09:45:40;;;;;;;0.50;0.50;;;2.20;99.90;;;;;;4407275;32;20061;-77
2024/01/20 09:48:06;;;;;;;3.10;2.05;;;2.20;99.90;;;;;;4403340;32;20090;-75
2024/01/20 09:50:32;;;;;;;0.90;0.90;;;2.20;99.90;;;;;;4396493;32;20165;-75
2024/01/20 09:53:07;;;;;;;0.98;0.98;;;2.20;99.90;;;;;;4399529;32;20131;-76
2024/01/20 09:55:33;;;;;;;0.40;0.40;;;2.20;99.90;;;;;;4406130;32;20074;-77
2024/01/20 09:58:00;;;;;;;0.68;0.68;;;2.30;99.90;;;;;;4408911;32;20081;-77
2024/01/20 10:00:28;;;;;;;0.45;0.45;;;2.30;99.90;;;;;;4408863;32;20165;-77
2024/01/20 10:02:54;;;;;;;0.93;0.93;;;2.40;99.90;;;;;;4402107;32;20114;-73
2024/01/20 10:05:23;;;;;;;1.75;1.25;;;2.50;99.90;;;;;;4403683;32;20510;-72
2024/01/20 10:07:49;;;;;;;0.50;0.50;;;2.50;99.90;;;;;;4400405;32;20129;-73
2024/01/20 10:10:20;;;;;;;0.37;0.37;;;2.60;99.90;;;;;;4399822;32;20518;-72
2024/01/20 10:12:48;;;;;;;0.40;0.40;;;2.70;99.90;;;;;;4399417;32;20148;-75
2024/01/20 10:15:14;;;;;;;0.50;0.50;;;2.80;99.90;;;;;;4397407;32;20069;-71
2024/01/20 10:17:39;;;;;;;0.50;0.50;;;2.70;99.90;;;;;;4397748;32;20093;-73
2024/01/20 10:20:05;;;;;;;0.60;0.60;;;2.70;99.90;;;;;;4387585;32;20517;-72
2024/01/20 10:22:31;;;;;;;0.55;0.55;;;2.80;99.90;;;;;;4402681;32;20057;-72
2024/01/20 10:24:57;;;;;;;0.45;0.45;;;2.80;99.90;;;;;;4404300;32;20093;-73
2024/01/20 10:27:23;;;;;;;0.40;0.40;;;2.90;99.90;;;;;;4403487;32;20077;-73
2024/01/20 10:29:49;;;;;;;0.37;0.37;;;2.90;99.90;;;;;;4402652;32;20078;-72
2024/01/20 10:32:16;;;;;;;0.50;0.50;;;2.90;99.90;;;;;;4398411;32;20090;-72
2024/01/20 10:34:42;;;;;;;1.05;1.05;;;3.00;99.90;;;;;;4381924;32;20122;-71
2024/01/20 10:37:10;;;;;;;2.45;1.10;;;3.00;99.90;;;;;;4402503;32;20086;-72
2024/01/20 10:39:42;;;;;;;0.40;0.40;;;2.90;99.90;;;;;;4401241;32;20076;-72
2024/01/20 10:42:12;;;;;;;2.92;0.93;;;2.90;99.90;;;;;;4401362;32;20081;-72
2024/01/20 10:44:42;;;;;;;0.85;0.85;;;3.00;99.90;;;;;;4400797;32;20545;-72
2024/01/20 10:47:16;;;;;;;0.40;0.40;;;3.10;99.90;;;;;;4400105;32;20086;-73
2024/01/20 10:49:45;;;;;;;0.40;0.40;;;3.10;99.90;;;;;;4393955;32;20163;-71
2024/01/20 10:52:12;;;;;;;0.40;0.40;;;3.20;99.90;;;;;;4396865;32;20074;-74
2024/01/20 10:54:42;;;;;;;0.40;0.40;;;3.40;99.90;;;;;;4400783;32;20089;-74
2024/01/20 10:57:07;;;;;;;0.30;0.30;;;3.60;99.90;;;;;;4398846;32;20066;-73
2024/01/20 10:59:39;;;;;;;0.55;0.55;;;3.80;99.90;;;;;;4401858;32;20069;-73
2024/01/20 11:02:06;;;;;;;0.57;0.57;;;3.80;99.90;;;;;;4396379;32;20102;-77
2024/01/20 11:04:34;;;;;;;2.05;0.93;;;3.60;99.90;;;;;;4390216;32;20107;-73
2024/01/20 11:06:59;;;;;;;1.05;0.93;;;3.40;99.90;;;;;;4400343;32;20811;-73
2024/01/20 11:09:25;;;;;;;0.60;0.60;;;3.30;99.90;;;;;;4398887;32;20073;-73
2024/01/20 11:12:01;;;;;;;0.50;0.50;;;3.20;99.90;;;;;;4395744;32;20077;-72
2024/01/20 11:14:28;;;;;;;0.88;0.77;;;3.30;99.90;;;;;;4393742;32;20356;-71
2024/01/20 11:16:56;;;;;;;0.75;0.75;;;3.10;99.90;;;;;;4396752;32;20148;-74
2024/01/20 11:19:22;;;;;;;0.60;0.60;;;3.10;99.90;;;;;;4396436;32;20119;-72
2024/01/20 11:21:47;;;;;;;0.50;0.50;;;3.00;99.90;;;;;;4397023;32;20149;-75
2024/01/20 11:24:16;;;;;;;0.40;0.40;;;2.90;99.90;;;;;;4394445;32;20080;-74
2024/01/20 11:26:41;;;;;;;0.40;0.40;;;3.00;99.90;;;;;;4394970;32;20110;-74
2024/01/20 11:29:08;;;;;;;0.62;0.62;;;3.10;99.90;;;;;;4390470;32;20082;-74
2024/01/20 11:31:34;;;;;;;0.40;0.40;;;3.30;99.90;;;;;;4397742;32;20070;-74
2024/01/20 11:34:02;;;;;;;0.55;0.55;;;3.40;99.90;;;;;;4396636;32;20125;-73
2024/01/20 11:36:30;;;;;;;0.40;0.40;;;3.60;99.90;;;;;;4388207;32;20085;-75
2024/01/20 11:38:57;;;;;;;0.40;0.40;;;3.80;99.90;;;;;;4394310;32;20994;-75
2024/01/20 11:41:23;;;;;;;0.40;0.40;;;4.00;99.90;;;;;;4395379;32;20711;-73
2024/01/20 11:43:48;;;;;;;0.50;0.50;;;4.00;99.90;;;;;;4394182;32;20074;-75
2024/01/20 11:46:14;;;;;;;0.60;0.60;;;4.00;99.90;;;;;;4394096;32;20213;-74
2024/01/20 11:48:40;;;;;;;0.98;0.93;;;4.10;99.90;;;;;;4394825;32;20122;-73
2024/01/20 11:51:06;;;;;;;0.60;0.60;;;4.10;99.90;;;;;;4397479;32;99207;-74
2024/01/20 11:53:33;;;;;;;0.30;0.30;;;4.10;99.90;;;;;;4398285;32;20144;-73
2024/01/20 11:56:00;;;;;;;1.90;0.50;;;4.20;99.90;;;;;;4403153;32;20078;-73
2024/01/20 11:58:26;;;;;;;0.35;0.35;;;4.20;99.90;;;;;;4402051;32;20124;-74
2024/01/20 12:00:53;;;;;;;0.35;0.35;;;4.40;99.90;;;;;;4402219;32;20069;-73
2024/01/20 12:03:20;;;;;;;0.65;0.65;;;4.60;99.90;;;;;;4399614;32;20675;-74
2024/01/20 12:05:46;;;;;;;1.58;0.73;;;4.80;99.90;;;;;;4382834;32;20070;-74
2024/01/20 12:08:12;;;;;;;1.23;0.93;;;4.70;99.90;;;;;;4391554;32;20082;-74
2024/01/20 12:10:38;;;;;;;0.50;0.50;;;4.90;99.90;;;;;;4393262;32;20081;-75
2024/01/20 12:13:04;;;;;;;0.40;0.40;;;5.00;99.90;;;;;;4388727;32;20113;-74
2024/01/20 12:15:37;;;;;;;0.88;0.77;;;5.10;99.90;;;;;;4392667;32;20487;-74
2024/01/20 12:18:03;;;;;;;0.30;0.30;;;5.40;99.90;;;;;;4401525;32;20707;-75
2024/01/20 12:20:28;;;;;;;0.30;0.30;;;5.60;99.90;;;;;;4401520;32;20616;-75
2024/01/20 12:22:56;;;;;;;0.40;0.40;;;5.50;99.90;;;;;;4402280;32;20077;-75
2024/01/20 12:25:22;;;;;;;0.50;0.50;;;5.50;99.90;;;;;;4394997;32;20062;-75
2024/01/20 12:27:51;;;;;;;1.30;1.10;;;5.80;99.90;;;;;;4398927;32;20094;-74
2024/01/20 12:30:16;;;;;;;0.70;0.70;;;6.00;99.90;;;;;;4395531;32;20118;-75
2024/01/20 12:32:42;;;;;;;0.77;0.77;;;6.30;99.90;;;;;;4397440;32;20085;-75
2024/01/20 12:35:07;;;;;;;0.60;0.60;;;6.60;99.90;;;;;;4397332;32;20535;-75
2024/01/20 12:37:33;;;;;;;0.30;0.30;;;6.40;99.90;;;;;;4390022;32;20106;-74
2024/01/20 12:39:58;;;;;;;0.45;0.45;;;6.30;99.90;;;;;;4399712;32;20538;-75
2024/01/20 12:42:24;;;;;;;0.40;0.40;;;6.30;99.90;;;;;;4398746;32;20599;-75
2024/01/20 12:44:50;;;;;;;0.50;0.50;;;6.20;99.90;;;;;;4401489;32;20090;-74
2024/01/20 12:47:16;;;;;;;0.40;0.40;;;6.00;99.90;;;;;;4394650;32;20065;-76
2024/01/20 12:49:41;;;;;;;0.50;0.50;;;6.20;99.90;;;;;;4395666;32;20065;-75
2024/01/20 12:52:07;;;;;;;0.85;0.62;;;6.40;99.90;;;;;;4399613;32;20081;-77
2024/01/20 12:54:32;;;;;;;0.70;0.70;;;6.70;99.90;;;;;;4395103;32;20241;-78